Time;durP1;ratioP1;P1;durP2;ratioP2;P2;SDS_P1;SDS_P2;PMS_P1;PMS_P2;Temp;Humidity;BMP_temperature;BMP_pressure;BME280_temperature;BME280_humidity;BME280_pressure;Samples;Min_cycle;Max_cycle;Signal;HPM_P1;HPM_P2
2021/10/07 00:00:32;;;;;;;;;5.75;4.75;;;;;12.10;66.31;101828.06;5038301;28;45525;-60
2021/10/07 00:02:57;;;;;;;;;8.25;5.75;;;;;12.07;65.88;101821.19;5055451;28;57651;-60
2021/10/07 00:05:23;;;;;;;;;7.50;5.50;;;;;12.06;66.20;101824.78;5054815;28;72212;-60
2021/10/07 00:07:48;;;;;;;;;6.75;5.75;;;;;12.06;65.39;101827.41;5056117;28;45410;-60
2021/10/07 00:10:14;;;;;;;;;7.75;5.00;;;;;12.05;65.68;101830.19;5056119;28;68278;-61
2021/10/07 00:12:39;;;;;;;;;5.75;4.75;;;;;12.02;65.42;101832.09;5059191;28;50664;-60
2021/10/07 00:15:05;;;;;;;;;8.00;7.00;;;;;12.01;65.85;101838.31;5040324;28;73422;-60
2021/10/07 00:17:30;;;;;;;;;6.75;5.75;;;;;12.05;65.95;101836.28;5041567;28;45304;-60
2021/10/07 00:19:56;;;;;;;;;5.50;5.00;;;;;12.05;65.38;101832.81;5058569;28;63379;-60
2021/10/07 00:22:21;;;;;;;;;7.00;6.00;;;;;12.04;65.57;101836.41;5058020;28;69600;-60
2021/10/07 00:24:46;;;;;;;;;4.25;4.25;;;;;12.01;65.59;101846.22;5059281;28;45336;-61
2021/10/07 00:27:12;;;;;;;;;5.75;4.50;;;;;11.99;65.57;101850.75;5058370;28;67389;-60
2021/10/07 00:39:34;;;;;;;;;7.00;4.50;;;;;11.84;65.76;101854.47;5059177;28;45324;-60
2021/10/07 00:41:59;;;;;;;;;4.00;3.00;;;;;11.83;65.76;101863.31;5058199;28;69757;-61
2021/10/07 00:44:29;;;;;;;;;8.75;5.00;;;;;11.79;65.44;101860.09;5057844;28;72199;-60
2021/10/07 00:46:58;;;;;;;;;4.50;4.50;;;;;11.79;65.74;101859.22;5059047;28;45215;-60
2021/10/07 00:49:23;;;;;;;;;6.75;4.25;;;;;11.77;65.87;101858.50;5040703;28;45541;-60
2021/10/07 00:51:49;;;;;;;;;5.75;4.75;;;;;11.76;66.36;101855.03;5058765;28;45402;-60
2021/10/07 00:54:16;;;;;;;;;5.25;4.00;;;;;11.78;66.49;101860.19;5058778;28;45396;-60
2021/10/07 00:56:41;;;;;;;;;5.00;5.00;;;;;11.77;66.60;101861.13;5058909;28;45367;-61
2021/10/07 00:59:06;;;;;;;;;6.50;4.25;;;;;11.78;66.48;101866.31;5040643;28;46111;-60
2021/10/07 01:01:32;;;;;;;;;5.75;3.00;;;;;11.78;66.69;101861.03;5057952;28;66296;-60
2021/10/07 01:03:57;;;;;;;;;5.50;4.25;;;;;11.79;66.75;101862.72;5057721;28;67279;-60
2021/10/07 01:06:22;;;;;;;;;5.00;5.00;;;;;11.81;67.00;101863.44;5040517;28;45682;-60
2021/10/07 01:08:48;;;;;;;;;7.00;5.00;;;;;11.82;67.14;101861.63;5058013;28;63170;-60
2021/10/07 01:11:14;;;;;;;;;5.50;3.00;;;;;11.80;67.14;101856.50;5039674;28;68202;-60
2021/10/07 01:13:40;;;;;;;;;5.00;4.00;;;;;11.80;67.18;101855.66;5058442;28;45392;-60
2021/10/07 01:16:05;;;;;;;;;3.75;3.75;;;;;11.80;67.56;101853.88;5058619;28;45310;-60
2021/10/07 01:18:30;;;;;;;;;5.25;4.00;;;;;11.83;67.27;101860.69;5057721;28;63117;-60
2021/10/07 01:20:56;;;;;;;;;5.75;5.00;;;;;11.82;67.56;101856.38;5057716;28;62020;-60
2021/10/07 01:23:21;;;;;;;;;6.25;6.00;;;;;11.83;67.14;101852.78;5056562;28;63933;-60
2021/10/07 01:25:47;;;;;;;;;9.50;5.00;;;;;11.83;67.16;101858.91;5058418;28;45624;-60
2021/10/07 01:28:12;;;;;;;;;4.25;4.00;;;;;11.82;67.67;101859.88;5057719;28;58759;-60
2021/10/07 01:30:37;;;;;;;;;6.75;4.00;;;;;11.84;67.17;101859.75;5057142;28;70318;-61
2021/10/07 01:33:03;;;;;;;;;6.00;3.75;;;;;11.84;67.35;101855.31;5055861;28;71464;-60
2021/10/07 01:35:28;;;;;;;;;5.50;3.00;;;;;11.84;67.36;101854.47;5039789;28;52827;-60
2021/10/07 01:37:54;;;;;;;;;4.25;4.25;;;;;11.80;67.35;101848.59;5058194;28;45270;-60
2021/10/07 01:40:20;;;;;;;;;4.75;4.50;;;;;11.84;67.60;101854.47;5057845;28;45392;-60
2021/10/07 01:42:45;;;;;;;;;6.00;4.00;;;;;11.84;67.25;101854.47;5057949;28;45422;-61
2021/10/07 01:45:11;;;;;;;;;4.50;4.25;;;;;11.84;67.68;101857.09;5040146;28;45455;-60
2021/10/07 01:47:36;;;;;;;;;6.25;4.75;;;;;11.84;66.99;101860.59;5058124;28;45491;-60
2021/10/07 01:50:03;;;;;;;;;7.00;5.00;;;;;11.83;67.35;101858.06;5057737;28;45303;-60
2021/10/07 01:52:28;;;;;;;;;5.00;4.00;;;;;11.82;67.63;101856.38;5057815;28;45367;-60
2021/10/07 01:54:54;;;;;;;;;3.75;3.75;;;;;11.81;67.30;101854.69;5057763;28;48492;-61
2021/10/07 01:57:19;;;;;;;;;5.75;4.00;;;;;11.79;67.34;101859.22;5056964;28;68903;-61
2021/10/07 01:59:44;;;;;;;;;4.00;4.00;;;;;11.77;67.55;101866.41;5057259;28;58593;-60
2021/10/07 02:02:10;;;;;;;;;3.00;3.00;;;;;11.77;67.54;101863.75;5057831;28;45241;-60
2021/10/07 02:04:35;;;;;;;;;4.25;4.25;;;;;11.77;67.50;101855.88;5039291;28;58435;-60
2021/10/07 02:07:01;;;;;;;;;5.50;4.00;;;;;11.77;67.72;101854.09;5057033;28;61983;-60
2021/10/07 02:09:26;;;;;;;;;6.00;4.75;;;;;11.77;67.96;101859.34;5056859;28;71018;-61
2021/10/07 02:11:51;;;;;;;;;4.00;4.00;;;;;11.78;67.91;101860.19;5057722;28;45224;-60
2021/10/07 02:14:17;;;;;;;;;5.00;4.00;;;;;11.77;67.82;101851.47;5057834;28;45316;-60
2021/10/07 02:16:42;;;;;;;;;4.50;3.75;;;;;11.77;67.44;101850.59;5057559;28;45767;-61
2021/10/07 02:19:08;;;;;;;;;5.00;5.00;;;;;11.75;67.44;101849.88;5057430;28;48829;-60
2021/10/07 02:21:33;;;;;;;;;6.50;4.25;;;;;11.73;67.62;101850.81;5057535;28;45428;-60
2021/10/07 02:23:58;;;;;;;;;8.25;6.75;;;;;11.75;67.05;101850.72;5057431;28;45342;-60
2021/10/07 02:26:24;;;;;;;;;6.50;6.00;;;;;11.75;66.78;101848.09;5039556;28;45566;-61
2021/10/07 02:28:49;;;;;;;;;13.00;10.00;;;;;11.73;66.57;101844.72;5057289;28;49450;-60
2021/10/07 02:31:15;;;;;;;;;12.50;11.75;;;;;11.69;65.96;101841.47;5057270;28;45331;-60
2021/10/07 02:33:40;;;;;;;;;13.50;12.00;;;;;11.63;65.73;101847.19;5038903;28;54912;-60
2021/10/07 02:36:05;;;;;;;;;14.50;10.50;;;;;11.58;65.62;101847.50;5057368;28;45319;-60
2021/10/07 02:38:31;;;;;;;;;17.25;12.00;;;;;11.54;65.95;101842.59;5057240;28;45438;-60
2021/10/07 02:40:56;;;;;;;;;16.50;15.00;;;;;11.48;66.14;101837.75;5056802;28;55143;-60
2021/10/07 02:43:22;;;;;;;;;17.75;15.25;;;;;11.43;65.37;101836.28;5056499;28;67508;-60
2021/10/07 02:45:47;;;;;;;;;18.50;15.00;;;;;11.41;65.89;101832.06;5057225;28;45246;-60
2021/10/07 02:48:12;;;;;;;;;18.00;14.25;;;;;11.38;66.07;101838.41;5057009;28;45361;-60
2021/10/07 02:50:38;;;;;;;;;15.75;14.00;;;;;11.33;66.04;101832.63;5057006;28;45653;-60
2021/10/07 02:53:03;;;;;;;;;15.75;13.75;;;;;11.31;65.57;101837.16;5039278;28;45271;-61
2021/10/07 02:55:29;;;;;;;;;17.75;12.50;;;;;11.31;66.22;101837.16;5057338;28;45183;-60
2021/10/07 02:57:54;;;;;;;;;15.75;13.50;;;;;11.32;65.72;101844.09;5056895;28;45326;-60
2021/10/07 03:00:19;;;;;;;;;13.00;11.00;;;;;11.30;66.37;101843.38;5056934;28;45267;-60
2021/10/07 03:02:45;;;;;;;;;17.50;13.00;;;;;11.30;66.27;101839.91;5057094;28;45717;-61
2021/10/07 03:05:11;;;;;;;;;21.75;13.75;;;;;11.25;66.17;101834.97;5056953;28;45568;-60
2021/10/07 03:07:36;;;;;;;;;14.00;9.00;;;;;11.21;65.62;101836.13;5056767;28;46427;-60
2021/10/07 03:10:03;;;;;;;;;14.25;12.00;;;;;11.19;66.36;101832.75;5056836;28;45454;-60
2021/10/07 03:12:28;;;;;;;;;11.00;10.75;;;;;11.18;66.36;101839.81;5056950;28;45361;-60
2021/10/07 03:14:54;;;;;;;;;12.00;9.50;;;;;11.19;66.54;101843.28;5056780;28;45730;-60
2021/10/07 03:17:19;;;;;;;;;14.00;11.50;;;;;11.18;66.16;101844.22;5056692;28;46293;-60
2021/10/07 03:19:44;;;;;;;;;16.00;13.00;;;;;11.14;66.41;101851.50;5056585;28;50160;-61
2021/10/07 03:22:10;;;;;;;;;12.75;11.75;;;;;11.11;66.15;101852.59;5056746;28;45311;-60
2021/10/07 03:24:35;;;;;;;;;13.00;12.50;;;;;11.09;66.19;101857.09;5056639;28;45592;-60
2021/10/07 03:27:01;;;;;;;;;12.50;12.00;;;;;11.07;66.13;101856.38;5056589;28;45449;-61
2021/10/07 03:29:27;;;;;;;;;15.50;9.50;;;;;11.07;65.57;101852.88;5056402;28;45280;-60
2021/10/07 03:31:53;;;;;;;;;11.75;11.75;;;;;11.05;66.00;101863.53;5056633;28;45186;-60
2021/10/07 03:34:18;;;;;;;;;13.75;11.00;;;;;11.03;65.94;101857.53;5038604;28;45292;-60
2021/10/07 03:36:43;;;;;;;;;11.00;10.50;;;;;11.03;65.79;101861.94;5056045;28;49315;-60
2021/10/07 03:39:09;;;;;;;;;13.75;10.00;;;;;11.02;66.10;101855.00;5056520;28;45225;-60
2021/10/07 03:41:34;;;;;;;;;11.25;10.00;;;;;10.97;66.32;101858.78;5056608;28;45223;-60
2021/10/07 03:44:00;;;;;;;;;10.25;8.00;;;;;10.97;66.35;101857.94;5056550;28;45266;-60
2021/10/07 03:46:25;;;;;;;;;10.00;8.25;;;;;10.96;66.38;101861.53;5062018;28;46217;-60
2021/10/07 03:48:50;;;;;;;;;10.50;9.25;;;;;10.94;66.44;101856.34;5062863;28;49924;-60
2021/10/07 03:51:16;;;;;;;;;11.50;11.00;;;;;10.92;66.50;101854.78;5063125;28;45158;-60
2021/10/07 03:53:41;;;;;;;;;12.25;11.00;;;;;10.89;66.35;101863.72;5045238;28;45324;-60
2021/10/07 03:56:07;;;;;;;;;11.75;11.75;;;;;10.86;66.50;101865.72;5063091;28;46162;-60
2021/10/07 03:58:32;;;;;;;;;20.75;11.75;;;;;10.84;66.04;101866.69;5062968;28;45367;-59
2021/10/07 04:00:58;;;;;;;;;12.75;9.75;;;;;10.79;66.13;101863.50;5062901;28;45814;-60
2021/10/07 04:03:23;;;;;;;;;14.75;12.25;;;;;10.76;66.00;101868.97;5063188;28;45608;-60
2021/10/07 04:05:48;;;;;;;;;19.00;16.00;;;;;10.75;66.24;101871.72;5062557;28;46301;-60
2021/10/07 04:08:15;;;;;;;;;23.50;21.75;;;;;10.71;66.30;101876.34;5062697;28;45331;-60
2021/10/07 04:10:40;;;;;;;;;22.00;20.75;;;;;10.68;66.15;101877.41;5044984;28;45403;-60
2021/10/07 04:13:05;;;;;;;;;23.75;18.75;;;;;10.67;66.05;101880.13;5062956;28;45565;-60
2021/10/07 04:15:31;;;;;;;;;27.75;23.75;;;;;10.63;65.95;101879.50;5061376;28;48485;-60
2021/10/07 04:17:57;;;;;;;;;25.50;23.00;;;;;10.62;66.06;101882.22;5062880;28;45451;-60
2021/10/07 04:20:22;;;;;;;;;25.25;21.00;;;;;10.57;66.24;101879.06;5062713;28;45217;-60
2021/10/07 04:22:47;;;;;;;;;26.50;22.00;;;;;10.54;66.49;101877.47;5062544;28;45301;-60
2021/10/07 04:25:13;;;;;;;;;27.25;21.25;;;;;10.54;66.98;101883.59;5062583;28;45352;-60
2021/10/07 04:27:38;;;;;;;;;23.75;20.25;;;;;10.56;66.69;101887.91;5062507;28;45304;-60
2021/10/07 04:30:05;;;;;;;;;20.00;16.75;;;;;10.54;66.74;101872.22;5062735;28;45242;-60
2021/10/07 04:32:31;;;;;;;;;19.50;17.75;;;;;10.53;66.39;101879.28;5044504;28;45527;-60
2021/10/07 04:34:57;;;;;;;;;16.50;15.00;;;;;10.53;66.77;101884.53;5062154;28;52652;-60
2021/10/07 04:37:22;;;;;;;;;20.25;17.75;;;;;10.52;66.62;101880.22;5062422;28;45292;-60
2021/10/07 04:39:48;;;;;;;;;16.50;15.00;;;;;10.52;66.94;101882.00;5062737;28;45335;-60
2021/10/07 04:42:13;;;;;;;;;22.75;18.00;;;;;10.53;66.96;101884.53;5044498;28;45442;-60
2021/10/07 04:44:39;;;;;;;;;17.00;15.50;;;;;10.53;67.24;101879.28;5062247;28;49661;-60
2021/10/07 04:47:04;;;;;;;;;16.75;13.50;;;;;10.54;67.06;101880.97;5062205;28;45253;-60
2021/10/07 04:49:29;;;;;;;;;19.00;16.00;;;;;10.54;67.15;101880.97;5062314;28;45324;-60
2021/10/07 04:51:55;;;;;;;;;19.25;16.50;;;;;10.55;67.92;101884.41;5062302;28;45549;-60
2021/10/07 04:54:20;;;;;;;;;15.00;12.00;;;;;10.58;67.57;101883.38;5061981;28;48353;-60
2021/10/07 04:56:46;;;;;;;;;17.75;15.75;;;;;10.60;67.54;101887.59;5059606;28;45245;-60
2021/10/07 04:59:11;;;;;;;;;16.25;12.75;;;;;10.64;68.10;101882.94;5059005;28;45812;-60
2021/10/07 05:01:37;;;;;;;;;10.75;10.75;;;;;10.68;67.98;101876.53;5058616;28;48703;-60
2021/10/07 05:04:03;;;;;;;;;14.75;9.25;;;;;10.71;68.13;101880.75;5058967;28;46051;-60
2021/10/07 05:06:29;;;;;;;;;9.75;8.00;;;;;10.73;68.71;101884.97;5058776;28;45791;-60
2021/10/07 05:08:55;;;;;;;;;10.50;7.00;;;;;10.75;68.70;101892.75;5057637;28;45393;-60
2021/10/07 05:11:20;;;;;;;;;9.50;8.25;;;;;10.73;68.76;101886.75;5058755;28;45585;-60
2021/10/07 05:13:45;;;;;;;;;13.25;11.75;;;;;10.73;68.38;101892.84;5057708;28;69701;-60
2021/10/07 05:16:11;;;;;;;;;18.00;16.75;;;;;10.74;67.99;101901.59;5057726;28;66061;-60
2021/10/07 05:18:36;;;;;;;;;24.50;17.00;;;;;10.71;67.51;101902.63;5058041;28;61142;-60
2021/10/07 05:21:02;;;;;;;;;15.50;12.75;;;;;10.68;67.50;101908.94;5058183;28;51929;-60
2021/10/07 05:23:29;;;;;;;;;16.75;13.00;;;;;10.66;67.41;101909.97;5039470;28;45668;-60
2021/10/07 05:25:54;;;;;;;;;18.00;14.25;;;;;10.64;67.12;101903.97;5056817;28;45993;-60
2021/10/07 05:28:20;;;;;;;;;20.00;13.75;;;;;10.63;67.19;101912.81;5056811;28;45491;-60
2021/10/07 05:30:45;;;;;;;;;14.75;14.00;;;;;10.59;67.19;101909.56;5056716;28;45650;-60
2021/10/07 05:33:11;;;;;;;;;14.25;13.00;;;;;10.57;67.06;101910.63;5056339;28;46949;-60
2021/10/07 05:35:36;;;;;;;;;17.25;15.25;;;;;10.54;67.22;101909.88;5038382;28;45860;-60
2021/10/07 05:38:01;;;;;;;;;15.25;11.75;;;;;10.53;66.98;101913.44;5055167;28;62329;-60
2021/10/07 05:40:27;;;;;;;;;16.25;16.25;;;;;10.52;67.15;101911.75;5039050;28;61486;-60
2021/10/07 05:42:53;;;;;;;;;17.50;14.00;;;;;10.53;67.31;101909.97;5057499;28;59650;-60
2021/10/07 05:45:19;;;;;;;;;12.50;12.50;;;;;10.50;66.95;101916.28;5023375;28;45758;-60
2021/10/07 05:47:44;;;;;;;;;13.25;10.00;;;;;10.51;67.00;101915.31;5057405;28;51961;-60
2021/10/07 05:50:10;;;;;;;;;18.00;16.25;;;;;10.50;67.38;101910.16;5057940;28;45568;-60
2021/10/07 05:52:36;;;;;;;;;17.00;14.00;;;;;10.50;67.66;101916.28;5057736;28;46629;-60
2021/10/07 05:55:02;;;;;;;;;11.00;10.25;;;;;10.55;68.05;101921.22;5057921;28;45329;-60
2021/10/07 05:57:27;;;;;;;;;11.00;10.00;;;;;10.58;68.33;101918.38;5058242;28;45676;-61
2021/10/07 05:59:52;;;;;;;;;11.00;9.00;;;;;10.60;68.04;101913.03;5057120;28;63680;-60
2021/10/07 06:02:18;;;;;;;;;14.00;9.00;;;;;10.62;68.55;101917.22;5056687;28;71334;-60
2021/10/07 06:04:43;;;;;;;;;11.25;9.00;;;;;10.64;69.02;101920.59;5038839;28;64641;-60
2021/10/07 06:07:09;;;;;;;;;12.50;9.00;;;;;10.65;69.32;101924.91;5056636;28;60707;-60
2021/10/07 06:09:34;;;;;;;;;10.25;9.75;;;;;10.66;69.30;101925.75;5038351;28;64307;-60
2021/10/07 06:11:59;;;;;;;;;9.50;8.25;;;;;10.68;69.35;101926.47;5038458;28;68250;-60
2021/10/07 06:14:25;;;;;;;;;10.50;9.00;;;;;10.71;69.84;101933.34;5056705;28;64359;-60
2021/10/07 06:16:53;;;;;;;;;7.75;7.25;;;;;10.75;69.69;101935.66;5057583;28;45343;-59
2021/10/07 06:19:18;;;;;;;;;10.50;8.00;;;;;10.79;69.87;101945.03;5039501;28;45240;-60
2021/10/07 06:21:44;;;;;;;;;8.50;8.00;;;;;10.83;69.79;101943.88;5057255;28;45347;-60
2021/10/07 06:24:09;;;;;;;;;10.00;9.00;;;;;10.88;69.55;101953.25;5057105;28;45442;-60
2021/10/07 06:26:35;;;;;;;;;16.50;15.25;;;;;10.92;69.05;101954.72;5056702;28;60817;-60
2021/10/07 06:29:00;;;;;;;;;23.00;21.75;;;;;10.93;67.92;101949.34;5057518;28;45237;-61
2021/10/07 06:31:25;;;;;;;;;25.75;20.00;;;;;10.93;67.74;101948.50;5056485;28;68530;-60
2021/10/07 06:33:51;;;;;;;;;27.00;21.25;;;;;10.92;67.77;101952.91;5057186;28;45240;-60
2021/10/07 06:36:17;;;;;;;;;22.00;19.00;;;;;10.91;67.38;101947.78;5039434;28;45260;-60
2021/10/07 06:38:42;;;;;;;;;20.25;18.50;;;;;10.91;67.74;101951.22;5056437;28;45568;-60
2021/10/07 06:41:07;;;;;;;;;21.75;17.75;;;;;10.93;68.25;101951.16;5039064;28;46202;-60
2021/10/07 06:43:33;;;;;;;;;19.25;18.50;;;;;10.94;68.06;101950.19;5056614;28;58556;-60
2021/10/07 06:45:58;;;;;;;;;21.50;17.00;;;;;10.96;68.26;101946.50;5056326;28;60676;-60
2021/10/07 06:48:23;;;;;;;;;32.75;28.25;;;;;10.99;67.84;101961.25;5038823;28;45533;-60
2021/10/07 06:50:49;;;;;;;;;29.50;25.00;;;;;11.00;67.33;101957.69;5055807;28;71587;-60
2021/10/07 06:53:14;;;;;;;;;25.75;21.00;;;;;10.99;67.08;101958.63;5038029;28;67796;-60
2021/10/07 06:55:40;;;;;;;;;20.50;20.00;;;;;10.98;66.68;101956.94;5056880;28;45390;-60
2021/10/07 06:58:06;;;;;;;;;26.25;23.25;;;;;10.96;67.03;101951.78;5057033;28;45606;-60
2021/10/07 07:00:32;;;;;;;;;30.75;27.00;;;;;10.94;66.94;101966.81;5038874;28;46187;-60
2021/10/07 07:02:58;;;;;;;;;33.75;29.00;;;;;10.93;67.03;101962.50;5038692;28;45377;-60
2021/10/07 07:05:24;;;;;;;;;36.75;29.25;;;;;10.92;67.21;101968.69;5037792;28;45434;-60
2021/10/07 07:07:49;;;;;;;;;29.50;24.00;;;;;10.94;67.48;101968.59;5055738;28;45344;-60
2021/10/07 07:10:18;;;;;;;;;32.50;27.75;;;;;10.95;67.30;101972.94;5055239;28;67878;-61
2021/10/07 07:12:47;;;;;;;;;34.75;31.25;;;;;10.96;67.43;101972.81;5055099;28;46066;-60
2021/10/07 07:15:12;;;;;;;;;30.50;28.25;;;;;10.98;67.64;101970.09;5055112;28;45509;-60
2021/10/07 07:17:38;;;;;;;;;26.50;22.50;;;;;10.99;67.93;101971.78;5055223;28;45377;-60
2021/10/07 07:20:04;;;;;;;;;27.50;20.75;;;;;11.02;68.20;101971.56;5054146;28;45455;-60
2021/10/07 07:22:30;;;;;;;;;26.75;24.75;;;;;11.07;68.03;101972.09;5054608;28;45936;-60
2021/10/07 07:24:56;;;;;;;;;26.00;24.50;;;;;11.12;68.01;101975.28;5055012;28;45475;-60
2021/10/07 07:27:21;;;;;;;;;31.75;26.50;;;;;11.19;68.04;101975.69;5056273;28;45458;-60
2021/10/07 07:29:47;;;;;;;;;27.50;24.00;;;;;11.26;68.13;101983.97;5056287;28;45474;-60
2021/10/07 07:32:12;;;;;;;;;25.00;22.00;;;;;11.33;68.36;101987.06;5050746;28;45372;-60
2021/10/07 07:34:37;;;;;;;;;26.50;24.00;;;;;11.40;68.63;101988.28;5034859;28;51919;-60
2021/10/07 07:37:03;;;;;;;;;26.75;23.00;;;;;11.49;68.04;101989.47;5052978;28;45605;-60
2021/10/07 07:39:28;;;;;;;;;27.75;24.75;;;;;11.57;68.13;101989.78;5051745;28;45529;-60
2021/10/07 07:41:54;;;;;;;;;22.25;18.00;;;;;11.65;68.62;101991.88;5047892;28;45513;-60
2021/10/07 07:44:19;;;;;;;;;31.25;25.75;;;;;11.72;68.33;101993.13;5043035;28;45633;-60
2021/10/07 07:46:45;;;;;;;;;28.75;24.75;;;;;11.81;68.36;101989.84;5022440;28;63289;-60
2021/10/07 07:49:10;;;;;;;;;26.25;21.00;;;;;11.91;68.85;101986.56;5040594;28;67537;-60
2021/10/07 07:51:35;;;;;;;;;22.00;19.25;;;;;12.04;68.61;101989.19;5041265;28;63866;-60
2021/10/07 07:54:01;;;;;;;;;23.25;19.00;;;;;12.17;68.91;101992.66;5042176;28;45478;-60
2021/10/07 07:56:26;;;;;;;;;18.00;13.50;;;;;12.34;69.13;101993.19;5042453;28;45576;-60
2021/10/07 07:58:53;;;;;;;;;16.00;12.00;;;;;12.56;69.39;101995.94;5021483;28;71282;-60
2021/10/07 08:01:19;;;;;;;;;21.25;16.50;;;;;12.80;68.78;101996.88;5042585;28;46067;-61
2021/10/07 08:03:44;;;;;;;;;12.50;12.25;;;;;13.01;68.96;101992.59;5023381;28;45582;-60
2021/10/07 08:06:10;;;;;;;;;15.00;12.00;;;;;13.27;68.00;101991.56;5022879;28;45864;-60
2021/10/07 08:08:35;;;;;;;;;12.00;11.00;;;;;13.52;67.66;101993.19;5041006;28;66929;-60
2021/10/07 08:11:00;;;;;;;;;11.50;10.50;;;;;13.76;67.40;101987.81;5041361;28;65298;-61
2021/10/07 08:13:26;;;;;;;;;12.00;11.00;;;;;14.02;66.96;101997.25;5041400;28;62930;-60
2021/10/07 08:15:51;;;;;;;;;13.00;12.75;;;;;14.27;65.96;102000.56;5043705;28;45722;-61
2021/10/07 08:18:18;;;;;;;;;15.75;13.75;;;;;14.52;65.63;102002.91;5040321;28;45744;-60
2021/10/07 08:20:43;;;;;;;;;15.00;13.75;;;;;14.77;65.31;101998.25;5024471;28;45505;-60
2021/10/07 08:23:12;;;;;;;;;17.00;14.50;;;;;15.03;64.58;102002.31;5042234;28;45501;-60
2021/10/07 08:25:39;;;;;;;;;14.75;14.00;;;;;15.28;63.97;102006.38;5023304;28;46142;-60
2021/10/07 08:28:04;;;;;;;;;17.00;15.50;;;;;15.50;63.27;102002.72;5041123;28;45488;-60
2021/10/07 08:30:30;;;;;;;;;16.50;15.25;;;;;15.73;62.96;102006.00;5039252;28;45474;-60
2021/10/07 08:32:55;;;;;;;;;15.50;13.25;;;;;15.98;62.00;102006.53;5046223;28;45440;-61
2021/10/07 08:35:21;;;;;;;;;22.25;17.75;;;;;16.23;61.66;102007.00;5052555;28;63559;-61
2021/10/07 08:37:47;;;;;;;;;16.50;13.50;;;;;16.47;61.06;102006.59;5049706;28;66806;-61
2021/10/07 08:40:12;;;;;;;;;16.25;13.50;;;;;16.71;60.75;102005.34;5049450;28;46532;-61
2021/10/07 08:42:38;;;;;;;;;15.50;13.75;;;;;16.94;60.34;102005.06;5046257;28;45592;-60
2021/10/07 08:45:04;;;;;;;;;13.00;11.75;;;;;17.17;59.63;101992.34;5046337;28;45581;-60
2021/10/07 08:47:30;;;;;;;;;13.25;11.25;;;;;17.40;58.90;102004.44;5048795;28;45533;-61
2021/10/07 08:49:55;;;;;;;;;10.50;9.75;;;;;17.60;58.51;101999.88;5048827;28;45615;-60
2021/10/07 08:52:20;;;;;;;;;12.25;9.75;;;;;17.83;58.14;101994.16;5047290;28;54027;-61
2021/10/07 08:54:46;;;;;;;;;16.25;13.25;;;;;18.04;57.75;101996.56;5048890;28;51025;-61
2021/10/07 08:57:11;;;;;;;;;8.75;8.25;;;;;18.22;57.13;101994.78;5052495;28;45439;-61
2021/10/07 08:59:37;;;;;;;;;11.75;10.50;;;;;18.37;56.67;101996.91;5054628;28;45458;-61
2021/10/07 09:02:06;;;;;;;;;10.25;7.00;;;;;18.46;55.58;101995.16;5055806;28;45533;-60
2021/10/07 09:04:36;;;;;;;;;7.50;6.25;;;;;18.49;55.28;102001.03;5054066;28;45509;-61
2021/10/07 09:07:08;;;;;;;;;10.75;7.50;;;;;18.44;55.53;102000.66;5054233;28;45538;-61
2021/10/07 09:09:39;;;;;;;;;10.25;7.75;;;;;18.47;55.85;101999.50;5038147;28;46126;-61
2021/10/07 09:12:10;;;;;;;;;13.25;8.00;;;;;18.54;55.38;101996.09;5055965;28;45519;-61
2021/10/07 09:14:37;;;;;;;;;8.00;6.50;;;;;18.62;55.07;101994.47;5055958;28;45496;-61
2021/10/07 09:17:03;;;;;;;;;12.25;9.00;;;;;18.66;54.55;101999.34;5037890;28;47110;-61
2021/10/07 09:19:33;;;;;;;;;10.50;8.25;;;;;18.65;54.66;101995.00;5038254;28;45459;-61
2021/10/07 09:22:17;;;;;;;;;9.50;8.00;;;;;18.67;54.72;102002.81;5056250;28;45545;-61
2021/10/07 09:24:44;;;;;;;;;6.25;6.25;;;;;18.69;54.81;101995.53;5055094;28;45501;-61
2021/10/07 09:27:13;;;;;;;;;10.25;7.75;;;;;18.74;54.24;101995.06;5071044;28;45475;-60
2021/10/07 09:29:52;;;;;;;;;8.75;6.75;;;;;18.75;53.90;101991.44;5037982;28;45404;-61
2021/10/07 09:32:41;;;;;;;;;7.75;5.25;;;;;18.75;54.24;101991.44;5055517;28;45510;-61
2021/10/07 09:35:08;;;;;;;;;9.00;8.00;;;;;18.77;53.74;101995.59;5039904;28;45612;-61
2021/10/07 09:37:40;;;;;;;;;8.50;8.50;;;;;18.78;54.00;101994.59;5037248;28;46584;-61
2021/10/07 09:40:06;;;;;;;;;28.75;28.00;;;;;18.85;54.16;101984.16;5021036;28;45380;-61
2021/10/07 09:42:34;;;;;;;;;11.25;8.50;;;;;18.88;53.72;101988.34;5055417;28;45539;-60
2021/10/07 09:45:23;;;;;;;;;8.00;7.00;;;;;18.87;53.66;101994.66;5037745;28;45558;-61
2021/10/07 09:47:52;;;;;;;;;8.25;8.25;;;;;18.89;53.93;101998.00;5037357;28;45616;-61
2021/10/07 09:50:18;;;;;;;;;8.00;7.25;;;;;18.91;53.65;101986.19;5055033;28;45563;-61
2021/10/07 09:52:46;;;;;;;;;8.75;6.00;;;;;18.96;53.57;101991.94;5037784;28;45458;-61
2021/10/07 09:55:15;;;;;;;;;10.50;6.25;;;;;19.01;53.39;101993.28;5055022;28;45503;-61
2021/10/07 09:57:55;;;;;;;;;10.50;5.75;;;;;19.10;53.44;101985.19;5054017;28;45578;-61
2021/10/07 10:00:21;;;;;;;;;6.25;3.50;;;;;19.25;53.75;101981.94;5055190;28;45761;-61
2021/10/07 10:02:47;;;;;;;;;7.75;6.75;;;;;19.43;53.19;101987.19;5055535;28;45467;-61
2021/10/07 10:05:13;;;;;;;;;8.25;7.00;;;;;19.64;52.61;101994.78;5054278;28;59955;-61
2021/10/07 10:07:40;;;;;;;;;11.75;7.00;;;;;19.86;52.45;101985.38;5054776;28;45515;-61
2021/10/07 10:10:06;;;;;;;;;12.75;6.75;;;;;20.06;52.18;101985.13;5053854;28;45997;-61
2021/10/07 10:12:32;;;;;;;;;6.50;6.00;;;;;20.26;51.89;101982.16;5054291;28;45483;-61
2021/10/07 10:14:57;;;;;;;;;11.75;9.00;;;;;20.44;51.11;101976.66;5037495;28;45354;-61
2021/10/07 10:17:22;;;;;;;;;8.25;6.25;;;;;20.61;51.05;101981.00;5035643;28;56295;-61
2021/10/07 10:19:50;;;;;;;;;7.50;5.00;;;;;20.77;50.85;101984.69;5036421;28;61231;-61
2021/10/07 10:22:15;;;;;;;;;5.50;4.00;;;;;20.91;48.95;101983.19;5036802;28;45549;-61
2021/10/07 10:24:40;;;;;;;;;5.75;4.00;;;;;21.01;49.23;101977.66;5054290;28;51012;-61
2021/10/07 10:27:06;;;;;;;;;5.50;5.25;;;;;21.17;48.01;101974.09;5035575;28;66724;-61
2021/10/07 10:29:33;;;;;;;;;4.75;4.00;;;;;21.30;47.77;101982.41;5054377;28;63284;-61
2021/10/07 10:31:59;;;;;;;;;3.00;3.00;;;;;21.32;46.88;101971.53;5055245;28;45367;-61
2021/10/07 10:34:24;;;;;;;;;2.75;2.75;;;;;21.31;46.51;101969.88;5054835;28;45439;-61
2021/10/07 10:36:53;;;;;;;;;3.00;3.00;;;;;21.32;47.18;101971.53;5054131;28;71228;-62
2021/10/07 10:39:25;;;;;;;;;5.25;4.25;;;;;21.32;47.39;101972.38;5054990;28;46019;-61
2021/10/07 10:42:24;;;;;;;;;6.00;5.00;;;;;21.38;47.06;101976.19;5054778;28;45480;-61
2021/10/07 10:44:54;;;;;;;;;9.75;6.75;;;;;21.37;47.74;101968.34;5036149;28;45436;-61
2021/10/07 10:47:20;;;;;;;;;5.25;5.00;;;;;21.33;47.70;101967.84;5054719;28;45465;-61
2021/10/07 10:49:50;;;;;;;;;9.00;7.00;;;;;21.25;48.03;101975.91;5054633;28;45506;-61
2021/10/07 10:52:24;;;;;;;;;8.25;7.50;;;;;21.13;48.37;101978.09;5054370;28;45462;-61
2021/10/07 10:54:57;;;;;;;;;7.75;5.50;;;;;20.98;47.76;101972.63;5053672;28;45553;-61
2021/10/07 10:57:48;;;;;;;;;6.25;4.25;;;;;20.76;47.99;101986.50;5053520;28;47207;-61
2021/10/07 11:00:18;;;;;;;;;5.00;5.00;;;;;20.57;49.11;101982.34;5053373;28;45812;-61
2021/10/07 11:02:45;;;;;;;;;7.25;3.00;;;;;20.42;49.15;101981.31;5053867;28;45473;-61
2021/10/07 11:05:25;;;;;;;;;5.75;3.00;;;;;20.29;48.89;101982.66;5054567;28;45560;-61
2021/10/07 11:08:20;;;;;;;;;7.25;5.00;;;;;20.13;49.64;101982.66;5021937;28;45452;-61
2021/10/07 11:10:49;;;;;;;;;8.75;5.00;;;;;20.02;49.75;101976.63;5040706;28;45280;-61
2021/10/07 11:13:26;;;;;;;;;6.00;4.00;;;;;19.96;49.34;101974.59;5054506;28;45530;-61
2021/10/07 11:15:57;;;;;;;;;5.00;3.75;;;;;19.94;50.40;101981.06;5037120;28;45530;-61
2021/10/07 11:18:28;;;;;;;;;4.50;3.50;;;;;19.90;50.04;101983.25;5033198;28;45472;-61
2021/10/07 11:20:57;;;;;;;;;5.50;4.00;;;;;19.91;49.81;101978.72;5050550;28;45482;-61
2021/10/07 11:23:23;;;;;;;;;4.00;3.50;;;;;19.95;49.50;101986.25;5019886;28;45520;-61